Time;durP1;ratioP1;P1;durP2;ratioP2;P2;SDS_P1;SDS_P2;PMS_P1;PMS_P2;Temp;Humidity;BMP_temperature;BMP_pressure;BME280_temperature;BME280_humidity;BME280_pressure;Samples;Min_cycle;Max_cycle;Signal;HPM_P1;HPM_P2
2022/08/01 04:03:51;;;;;;;2.10;1.90;;;19.70;99.90;;;;;;5765875;23;20826;-65
2022/08/01 04:06:17;;;;;;;3.00;2.00;;;19.70;99.90;;;;;;4976670;28;20418;-66
2022/08/01 04:08:42;;;;;;;3.10;2.60;;;19.70;99.90;;;;;;4976957;28;20176;-66
2022/08/01 04:11:09;;;;;;;2.00;1.90;;;19.70;99.90;;;;;;4959419;28;20736;-67
2022/08/01 04:13:35;;;;;;;2.50;2.30;;;19.70;99.90;;;;;;4958976;28;20192;-66
2022/08/01 04:16:01;;;;;;;2.40;1.93;;;19.70;99.90;;;;;;4976764;28;20382;-66
2022/08/01 04:18:26;;;;;;;2.23;2.03;;;19.80;99.90;;;;;;4975982;28;20394;-66
2022/08/01 04:20:52;;;;;;;2.20;2.10;;;19.80;99.90;;;;;;4976348;28;20208;-66
2022/08/01 04:23:24;;;;;;;3.20;2.50;;;19.80;99.90;;;;;;4976119;28;20260;-66
2022/08/01 04:25:50;;;;;;;2.50;2.30;;;19.80;99.90;;;;;;4976473;28;20263;-66
2022/08/01 04:28:17;;;;;;;1.80;1.70;;;19.90;99.90;;;;;;4976552;28;20379;-66
2022/08/01 04:30:46;;;;;;;1.90;1.80;;;19.90;99.90;;;;;;4976743;28;20899;-66
2022/08/01 04:33:15;;;;;;;1.77;1.67;;;20.00;99.90;;;;;;4974529;28;20441;-65
2022/08/01 04:35:45;;;;;;;2.23;2.03;;;20.10;99.90;;;;;;4975448;28;20405;-65
2022/08/01 04:38:13;;;;;;;2.27;2.07;;;20.20;99.90;;;;;;4975934;28;20427;-65
2022/08/01 04:40:40;;;;;;;1.80;1.70;;;20.30;99.90;;;;;;4976067;28;20436;-64
2022/08/01 04:43:07;;;;;;;1.70;1.60;;;20.50;99.90;;;;;;4958551;28;20389;-66
2022/08/01 04:45:34;;;;;;;1.60;1.50;;;20.80;99.90;;;;;;4975671;28;20394;-66
2022/08/01 04:48:00;;;;;;;1.77;1.67;;;21.10;99.90;;;;;;4958464;28;20881;-66
2022/08/01 04:50:27;;;;;;;2.30;2.10;;;21.40;99.90;;;;;;4975418;28;20634;-66
2022/08/01 04:52:52;;;;;;;1.93;1.83;;;21.80;99.90;;;;;;4975381;28;20423;-66
2022/08/01 04:55:18;;;;;;;1.83;1.73;;;22.10;99.90;;;;;;4975868;28;20952;-66
2022/08/01 04:57:46;;;;;;;2.23;2.03;;;22.30;99.60;;;;;;4975738;28;20567;-66
2022/08/01 05:00:12;;;;;;;1.93;1.77;;;22.60;99.10;;;;;;4975482;28;20312;-66
2022/08/01 05:02:38;;;;;;;2.20;2.00;;;22.80;98.40;;;;;;4975289;28;20386;-66
2022/08/01 05:05:05;;;;;;;2.77;1.97;;;23.00;98.00;;;;;;4975189;28;20455;-66
2022/08/01 05:07:32;;;;;;;2.50;2.20;;;23.20;97.70;;;;;;4975693;28;20166;-66
2022/08/01 05:09:58;;;;;;;2.40;1.90;;;23.20;97.20;;;;;;4975585;28;20423;-66
2022/08/01 05:12:24;;;;;;;2.20;2.07;;;23.30;97.40;;;;;;4975750;28;20444;-65
2022/08/01 05:14:49;;;;;;;5.87;4.70;;;23.40;97.60;;;;;;4975548;28;20202;-66
2022/08/01 05:17:16;;;;;;;2.60;2.40;;;23.50;96.90;;;;;;4974977;28;20208;-65
2022/08/01 05:19:42;;;;;;;2.00;1.90;;;23.60;96.50;;;;;;4975546;28;20225;-66
2022/08/01 05:22:09;;;;;;;2.03;1.93;;;23.80;96.10;;;;;;4975275;28;20479;-67
2022/08/01 05:24:38;;;;;;;2.00;1.90;;;23.90;95.80;;;;;;4975111;28;20910;-65
2022/08/01 05:27:04;;;;;;;2.10;1.90;;;24.00;95.50;;;;;;4975274;28;20400;-66
2022/08/01 05:29:30;;;;;;;2.33;2.13;;;23.90;95.70;;;;;;4975828;28;20397;-66
2022/08/01 05:31:57;;;;;;;1.73;1.63;;;23.80;95.90;;;;;;4974560;28;20428;-66
2022/08/01 05:34:23;;;;;;;1.77;1.67;;;23.80;95.80;;;;;;4974752;28;20464;-65
2022/08/01 05:36:49;;;;;;;1.70;1.60;;;23.80;95.50;;;;;;4975279;28;20462;-65
2022/08/01 05:39:14;;;;;;;1.80;1.70;;;23.80;95.50;;;;;;4975125;28;20765;-66
2022/08/01 05:41:42;;;;;;;1.80;1.70;;;23.80;95.60;;;;;;4957844;28;20306;-68
2022/08/01 05:44:08;;;;;;;1.93;1.83;;;23.90;95.50;;;;;;4974343;28;20971;-68
2022/08/01 05:46:34;;;;;;;2.70;2.50;;;23.90;95.70;;;;;;4974666;28;20203;-69
2022/08/01 05:49:02;;;;;;;1.93;1.83;;;23.90;96.10;;;;;;4974819;28;20858;-68
2022/08/01 05:51:28;;;;;;;3.87;2.20;;;23.90;96.00;;;;;;4974968;28;20765;-69
2022/08/01 05:53:54;;;;;;;2.43;2.23;;;24.00;95.90;;;;;;4974395;28;20410;-69
2022/08/01 05:56:21;;;;;;;1.73;1.63;;;24.00;96.10;;;;;;4957539;28;20424;-69
2022/08/01 05:58:47;;;;;;;1.83;1.73;;;24.00;95.70;;;;;;4974784;28;20237;-70
2022/08/01 06:01:12;;;;;;;4.93;2.00;;;24.10;95.40;;;;;;4974292;28;20448;-69
2022/08/01 06:03:38;;;;;;;1.60;1.50;;;24.00;95.40;;;;;;4974555;28;20501;-69
2022/08/01 06:06:04;;;;;;;1.60;1.50;;;24.10;95.50;;;;;;4957278;28;20194;-68
2022/08/01 06:08:30;;;;;;;1.97;1.70;;;24.20;95.40;;;;;;4974367;28;20234;-69
2022/08/01 06:10:55;;;;;;;1.50;1.50;;;24.30;95.40;;;;;;4974559;28;20414;-69
2022/08/01 06:13:21;;;;;;;1.87;1.77;;;24.40;95.40;;;;;;4974179;28;20551;-69
2022/08/01 06:15:47;;;;;;;1.70;1.60;;;24.40;95.40;;;;;;4973727;28;20191;-66
2022/08/01 06:18:13;;;;;;;1.90;1.80;;;24.50;95.30;;;;;;4974685;28;20272;-65
2022/08/01 06:20:40;;;;;;;1.83;1.73;;;24.50;95.40;;;;;;4974316;28;20434;-67
2022/08/01 06:23:05;;;;;;;1.90;1.63;;;24.70;95.60;;;;;;4974125;28;20375;-66
2022/08/01 06:25:31;;;;;;;1.57;1.47;;;24.70;95.60;;;;;;4974724;28;20386;-66
2022/08/01 06:27:57;;;;;;;2.60;2.50;;;24.80;95.50;;;;;;4974545;28;20627;-66
2022/08/01 06:30:23;;;;;;;1.53;1.43;;;24.80;95.40;;;;;;4974219;28;20634;-65
2022/08/01 06:32:48;;;;;;;1.40;1.30;;;24.90;95.10;;;;;;4974074;28;20191;-65
2022/08/01 06:35:17;;;;;;;1.27;1.27;;;25.00;95.20;;;;;;4973351;28;20456;-67
2022/08/01 06:37:44;;;;;;;1.33;1.27;;;25.00;95.30;;;;;;4974217;28;20184;-68
2022/08/01 06:40:11;;;;;;;1.00;1.00;;;25.00;95.30;;;;;;4974206;28;20444;-66
2022/08/01 06:42:37;;;;;;;1.40;1.30;;;25.00;95.40;;;;;;4969560;28;20429;-66
2022/08/01 06:45:08;;;;;;;1.40;1.20;;;25.10;95.40;;;;;;4978273;28;20472;-66
2022/08/01 06:47:33;;;;;;;1.63;1.40;;;25.10;94.60;;;;;;4993816;28;20475;-65
2022/08/01 06:49:59;;;;;;;1.50;1.40;;;25.20;94.60;;;;;;4993786;28;20510;-63
2022/08/01 06:52:25;;;;;;;2.20;1.60;;;25.30;94.60;;;;;;4993353;28;20180;-65
2022/08/01 06:54:51;;;;;;;2.73;1.47;;;25.30;94.50;;;;;;4992989;28;20241;-64
2022/08/01 06:57:17;;;;;;;2.63;1.13;;;25.40;94.00;;;;;;4955792;28;20475;-65
2022/08/01 06:59:43;;;;;;;1.23;1.23;;;25.60;93.90;;;;;;4965413;28;20459;-65
2022/08/01 07:02:09;;;;;;;1.37;1.27;;;25.60;93.60;;;;;;4973781;28;20180;-66
2022/08/01 07:04:35;;;;;;;1.50;1.30;;;25.60;93.70;;;;;;4973329;28;20498;-65
2022/08/01 07:07:00;;;;;;;1.43;1.33;;;25.70;93.60;;;;;;4974553;28;20263;-65
2022/08/01 07:09:26;;;;;;;1.53;1.20;;;25.80;93.70;;;;;;4973822;28;20177;-65
2022/08/01 07:11:53;;;;;;;2.30;1.10;;;25.90;93.60;;;;;;4974037;28;20188;-65
2022/08/01 07:14:20;;;;;;;0.90;0.90;;;25.90;93.50;;;;;;4973075;28;20443;-67
2022/08/01 07:16:45;;;;;;;0.93;0.93;;;25.90;93.30;;;;;;4974144;28;20515;-65
2022/08/01 07:19:12;;;;;;;1.13;1.13;;;26.10;92.90;;;;;;4973800;28;20422;-66
2022/08/01 07:21:38;;;;;;;2.63;2.43;;;26.20;92.50;;;;;;4973777;28;20558;-65
2022/08/01 07:24:04;;;;;;;1.50;1.40;;;26.30;92.60;;;;;;4973198;28;20480;-65
2022/08/01 07:26:30;;;;;;;2.90;1.80;;;26.30;92.30;;;;;;4974788;28;20382;-65
2022/08/01 07:28:55;;;;;;;1.63;1.53;;;26.40;92.20;;;;;;4976869;28;20418;-66
2022/08/01 07:31:22;;;;;;;1.30;1.20;;;26.50;92.20;;;;;;4977231;28;20184;-65
2022/08/01 07:33:48;;;;;;;1.23;1.13;;;26.60;91.60;;;;;;4976551;28;20214;-65
2022/08/01 07:36:14;;;;;;;1.00;1.00;;;26.70;91.70;;;;;;4977029;28;20837;-66
2022/08/01 07:38:39;;;;;;;3.83;1.33;;;26.80;91.70;;;;;;4977206;28;20177;-65
2022/08/01 07:41:05;;;;;;;2.00;1.43;;;26.90;91.30;;;;;;4976849;28;20206;-66
2022/08/01 07:43:30;;;;;;;1.60;1.50;;;27.10;90.60;;;;;;4971383;28;20199;-66
2022/08/01 07:45:56;;;;;;;1.60;1.50;;;27.50;90.80;;;;;;4977268;28;20233;-66
2022/08/01 07:48:23;;;;;;;1.20;1.20;;;27.80;90.80;;;;;;4976701;28;20208;-66
2022/08/01 07:50:50;;;;;;;1.47;1.37;;;28.30;89.60;;;;;;4976679;28;20262;-66
2022/08/01 07:53:16;;;;;;;1.33;1.10;;;28.90;88.30;;;;;;4976122;28;20394;-67
2022/08/01 07:55:42;;;;;;;1.77;1.67;;;30.00;86.30;;;;;;4976889;28;20523;-67
2022/08/01 07:58:08;;;;;;;1.63;1.53;;;31.30;81.90;;;;;;4976438;28;20506;-67
2022/08/01 08:00:33;;;;;;;2.00;1.90;;;32.80;76.30;;;;;;4976669;28;20482;-67
2022/08/01 08:02:59;;;;;;;3.67;3.40;;;34.00;71.70;;;;;;4975898;28;20641;-68
2022/08/01 08:05:27;;;;;;;2.90;2.70;;;35.10;68.70;;;;;;4958987;28;20262;-67
2022/08/01 08:07:52;;;;;;;1.70;1.60;;;36.20;65.00;;;;;;4976378;28;20242;-68
2022/08/01 08:10:18;;;;;;;1.90;1.80;;;36.70;60.80;;;;;;4976615;28;20525;-67
2022/08/01 08:12:46;;;;;;;2.40;1.70;;;36.70;60.60;;;;;;4976063;28;20557;-67
2022/08/01 08:15:12;;;;;;;2.20;2.07;;;36.80;59.10;;;;;;4976145;28;20215;-68
2022/08/01 08:17:37;;;;;;;1.40;1.40;;;36.80;58.80;;;;;;4976284;28;20479;-68
2022/08/01 08:20:05;;;;;;;1.77;1.67;;;36.00;58.40;;;;;;4976346;28;20905;-67
2022/08/01 08:22:31;;;;;;;1.80;1.70;;;35.10;60.80;;;;;;4975279;28;20549;-68
2022/08/01 08:24:56;;;;;;;1.63;1.53;;;35.00;61.70;;;;;;4976380;28;20435;-67
2022/08/01 08:27:22;;;;;;;1.60;1.50;;;34.90;60.00;;;;;;4976212;28;20184;-67
2022/08/01 08:29:47;;;;;;;1.93;1.67;;;34.30;61.50;;;;;;4976300;28;20180;-67
2022/08/01 08:32:13;;;;;;;1.70;1.60;;;34.20;62.90;;;;;;4965696;28;20643;-69
2022/08/01 08:34:39;;;;;;;1.90;1.80;;;34.30;63.30;;;;;;4961054;28;20742;-67
2022/08/01 08:37:05;;;;;;;1.87;1.77;;;34.90;62.10;;;;;;4975825;28;20271;-67
2022/08/01 08:39:31;;;;;;;1.97;1.87;;;35.70;61.00;;;;;;4975207;28;20271;-68
2022/08/01 08:42:01;;;;;;;2.10;2.00;;;36.50;59.60;;;;;;4976075;28;20230;-68
2022/08/01 08:44:27;;;;;;;2.10;1.90;;;36.70;58.20;;;;;;4971019;28;20452;-67
2022/08/01 08:46:55;;;;;;;2.30;2.20;;;36.80;58.00;;;;;;4975685;28;20411;-68
2022/08/01 08:49:24;;;;;;;1.77;1.67;;;37.10;57.70;;;;;;4976163;28;20546;-67
2022/08/01 08:51:52;;;;;;;1.63;1.53;;;37.30;57.00;;;;;;4975273;28;20475;-67
2022/08/01 08:54:23;;;;;;;1.90;1.70;;;37.00;56.80;;;;;;4958208;28;20497;-68
2022/08/01 08:56:50;;;;;;;1.67;1.57;;;37.10;57.00;;;;;;4975479;28;20427;-67
2022/08/01 08:59:16;;;;;;;1.93;1.83;;;37.20;56.40;;;;;;4975923;28;20758;-70
2022/08/01 09:01:42;;;;;;;1.93;1.83;;;37.10;56.80;;;;;;4975263;28;20821;-72
2022/08/01 09:04:08;;;;;;;1.83;1.73;;;37.40;56.30;;;;;;4944987;29;20456;-71
2022/08/01 09:06:34;;;;;;;4.80;1.80;;;37.90;55.80;;;;;;4961011;28;20945;-72
2022/08/01 09:08:59;;;;;;;1.70;1.67;;;38.20;54.90;;;;;;4975566;28;20198;-70
2022/08/01 09:11:25;;;;;;;2.10;2.00;;;38.70;54.40;;;;;;4974954;28;20212;-73
2022/08/01 09:14:14;;;;;;;1.80;1.70;;;38.40;53.30;;;;;;4974993;28;20263;-70
2022/08/01 09:16:42;;;;;;;2.30;2.20;;;37.40;54.90;;;;;;4966603;28;20264;-71
2022/08/01 09:19:09;;;;;;;1.53;1.43;;;36.40;55.80;;;;;;4968327;28;20412;-72
2022/08/01 09:21:35;;;;;;;1.67;1.63;;;35.50;57.50;;;;;;4974740;28;20436;-70
2022/08/01 09:24:05;;;;;;;1.50;1.40;;;35.40;57.60;;;;;;4974719;28;21008;-69
2022/08/01 09:26:36;;;;;;;1.87;1.77;;;34.90;58.10;;;;;;4975405;28;20180;-73
2022/08/01 09:29:16;;;;;;;2.00;1.73;;;34.60;58.50;;;;;;4957546;28;20416;-68
2022/08/01 09:31:43;;;;;;;1.90;1.80;;;34.20;59.40;;;;;;4975166;28;20825;-72
2022/08/01 09:34:10;;;;;;;2.07;1.97;;;33.70;59.80;;;;;;4955520;28;20447;-71
2022/08/01 09:36:51;;;;;;;1.93;1.83;;;33.20;60.60;;;;;;4974695;28;20423;-70
2022/08/01 09:39:21;;;;;;;2.63;1.80;;;32.90;63.20;;;;;;4966695;28;20427;-69
2022/08/01 09:41:47;;;;;;;2.40;2.30;;;33.40;62.70;;;;;;4974909;28;20462;-70
2022/08/01 09:44:17;;;;;;;2.10;2.00;;;33.80;60.00;;;;;;4957289;28;20798;-70
2022/08/01 09:47:09;;;;;;;2.17;2.07;;;33.70;60.10;;;;;;4971088;28;20467;-73
2022/08/01 09:49:38;;;;;;;2.40;2.20;;;34.30;59.30;;;;;;4971166;28;20440;-69
2022/08/01 09:52:12;;;;;;;3.00;2.33;;;34.60;58.70;;;;;;4974777;28;20463;-71
2022/08/01 09:54:38;;;;;;;2.97;2.77;;;35.00;58.30;;;;;;4974599;28;20439;-72
2022/08/01 09:57:12;;;;;;;2.50;2.40;;;35.40;58.10;;;;;;4974473;28;20933;-69
2022/08/01 09:59:42;;;;;;;2.93;2.73;;;36.00;57.70;;;;;;4969720;28;20838;-70
2022/08/01 10:02:10;;;;;;;4.00;2.57;;;36.90;56.60;;;;;;4974133;28;20428;-72
2022/08/01 10:04:36;;;;;;;2.90;2.70;;;37.50;55.70;;;;;;4972940;28;20458;-69
2022/08/01 10:07:08;;;;;;;3.33;3.13;;;38.10;54.90;;;;;;4974533;28;20427;-70
2022/08/01 10:09:36;;;;;;;3.67;3.37;;;38.50;54.10;;;;;;4974250;28;20180;-71
2022/08/01 10:12:03;;;;;;;3.17;2.97;;;38.30;54.00;;;;;;4974568;28;20457;-73
2022/08/01 10:14:29;;;;;;;4.00;3.80;;;38.50;53.50;;;;;;4974106;28;20916;-72
2022/08/01 10:16:59;;;;;;;5.57;5.10;;;38.30;53.00;;;;;;4941243;29;20431;-68
2022/08/01 10:19:27;;;;;;;3.83;3.57;;;37.90;53.30;;;;;;4966865;28;20952;-69
2022/08/01 10:21:55;;;;;;;3.40;3.20;;;37.50;54.30;;;;;;4974254;28;20423;-70
2022/08/01 10:24:21;;;;;;;3.37;3.17;;;37.40;54.40;;;;;;4973808;28;20439;-71
2022/08/01 10:27:08;;;;;;;3.40;3.20;;;37.80;54.70;;;;;;4973988;28;20723;-67
2022/08/01 10:30:09;;;;;;;3.50;3.27;;;38.10;52.60;;;;;;4973948;28;20920;-71
2022/08/01 10:32:35;;;;;;;3.00;2.80;;;37.30;53.30;;;;;;4951987;29;20425;-71
2022/08/01 10:35:03;;;;;;;3.37;3.17;;;37.30;54.30;;;;;;4964574;28;20433;-70
2022/08/01 10:37:29;;;;;;;3.00;2.80;;;37.20;54.10;;;;;;4974540;28;20434;-72
2022/08/01 10:39:56;;;;;;;3.50;2.77;;;37.30;53.70;;;;;;4974135;28;20407;-67
2022/08/01 10:42:22;;;;;;;3.37;3.17;;;37.40;53.40;;;;;;4974526;28;20407;-72
2022/08/01 10:44:48;;;;;;;2.53;2.43;;;37.20;53.40;;;;;;4969441;28;20435;-70
2022/08/01 10:47:23;;;;;;;2.37;2.27;;;37.30;54.40;;;;;;4957149;28;20526;-73
2022/08/01 10:50:01;;;;;;;2.30;2.20;;;37.40;53.80;;;;;;4971677;28;20421;-68
2022/08/01 10:52:27;;;;;;;2.70;2.50;;;37.00;53.70;;;;;;4954803;29;20495;-72
2022/08/01 10:55:09;;;;;;;4.07;2.90;;;36.90;53.50;;;;;;4947785;29;20520;-67
2022/08/01 10:57:42;;;;;;;3.37;3.17;;;36.50;53.60;;;;;;4965533;28;20172;-70
2022/08/01 11:00:08;;;;;;;2.63;2.47;;;36.10;54.70;;;;;;4974097;28;20424;-71
2022/08/01 11:02:40;;;;;;;2.93;2.83;;;35.70;55.00;;;;;;4969108;28;20440;-70
2022/08/01 11:05:21;;;;;;;3.67;3.37;;;35.10;55.80;;;;;;4965121;28;20460;-67
2022/08/01 11:07:52;;;;;;;2.90;2.70;;;34.30;56.20;;;;;;4976713;28;20826;-68
2022/08/01 11:10:32;;;;;;;3.33;3.10;;;33.60;57.70;;;;;;4977531;28;20451;-73
2022/08/01 11:13:00;;;;;;;2.17;2.07;;;33.60;58.10;;;;;;4977231;28;20423;-71
2022/08/01 11:15:27;;;;;;;4.03;2.67;;;33.80;57.80;;;;;;4976243;28;20538;-67
2022/08/01 11:17:55;;;;;;;2.90;2.70;;;33.80;57.70;;;;;;4959611;28;20783;-69
2022/08/01 11:20:22;;;;;;;2.93;2.80;;;33.70;57.90;;;;;;4977195;28;20419;-70
2022/08/01 11:23:00;;;;;;;3.27;3.07;;;33.40;57.90;;;;;;4976812;28;20398;-68
2022/08/01 11:25:47;;;;;;;3.33;3.13;;;33.30;57.50;;;;;;4972579;28;20490;-68
2022/08/01 11:28:24;;;;;;;3.17;2.97;;;32.80;58.20;;;;;;4964479;28;20448;-68
2022/08/01 11:30:51;;;;;;;2.97;2.77;;;32.60;59.10;;;;;;4976938;28;20470;-70
2022/08/01 11:33:19;;;;;;;3.00;2.80;;;32.20;59.60;;;;;;4958772;28;20463;-72
2022/08/01 11:36:22;;;;;;;2.50;2.40;;;31.70;59.20;;;;;;4972233;28;20397;-72
2022/08/01 11:39:13;;;;;;;2.40;2.30;;;31.20;60.10;;;;;;4976948;28;20391;-72
2022/08/01 11:41:39;;;;;;;3.50;2.57;;;30.90;62.40;;;;;;4977379;28;20390;-71
2022/08/01 11:44:10;;;;;;;2.40;2.20;;;31.00;61.20;;;;;;4976527;28;22428;-70
2022/08/01 11:46:56;;;;;;;2.80;2.60;;;30.90;61.80;;;;;;4977566;28;20902;-69
2022/08/01 11:49:37;;;;;;;2.00;1.90;;;31.10;62.60;;;;;;4969001;28;20749;-72
2022/08/01 11:52:28;;;;;;;1.97;1.87;;;31.20;62.80;;;;;;4957654;29;20547;-69
2022/08/01 11:55:04;;;;;;;2.43;2.30;;;31.10;61.20;;;;;;4945463;28;20426;-73
2022/08/01 11:57:36;;;;;;;2.67;2.57;;;30.70;63.60;;;;;;4957645;29;20881;-67
2022/08/01 12:00:12;;;;;;;2.30;2.20;;;30.60;63.10;;;;;;4976196;28;20906;-72
2022/08/01 12:02:38;;;;;;;2.63;2.40;;;30.60;63.40;;;;;;4976618;28;20919;-73
2022/08/01 12:05:07;;;;;;;2.20;2.00;;;30.50;63.00;;;;;;4975821;28;20513;-73
2022/08/01 12:07:34;;;;;;;1.90;1.80;;;30.40;63.90;;;;;;4976896;28;20195;-68
2022/08/01 12:10:14;;;;;;;2.13;2.03;;;30.60;63.90;;;;;;4976081;28;20828;-70
2022/08/01 12:12:49;;;;;;;2.03;1.93;;;30.60;65.40;;;;;;4958111;28;20756;-69
2022/08/01 12:15:15;;;;;;;2.40;2.20;;;30.60;64.00;;;;;;4976180;28;20413;-69
2022/08/01 12:17:43;;;;;;;2.60;2.40;;;30.70;64.10;;;;;;4963119;28;20515;-68
2022/08/01 12:20:11;;;;;;;2.40;2.30;;;30.90;63.80;;;;;;4972639;28;20424;-72
2022/08/01 12:22:37;;;;;;;2.50;2.40;;;31.00;63.40;;;;;;4958770;28;20431;-68
2022/08/01 12:25:11;;;;;;;2.37;2.17;;;30.90;62.30;;;;;;4976327;28;20434;-71
2022/08/01 12:27:38;;;;;;;2.93;2.73;;;30.90;63.80;;;;;;4975495;28;20424;-68
2022/08/01 12:30:15;;;;;;;2.57;2.37;;;31.10;62.50;;;;;;4975963;28;20454;-69
2022/08/01 12:32:43;;;;;;;2.70;2.50;;;31.20;62.80;;;;;;4974186;28;20398;-68
2022/08/01 12:35:17;;;;;;;2.73;2.53;;;30.90;61.80;;;;;;4960476;28;20425;-68
2022/08/01 12:37:47;;;;;;;2.70;2.37;;;30.90;63.50;;;;;;4976343;28;20407;-68
2022/08/01 12:40:19;;;;;;;2.40;2.30;;;30.90;62.70;;;;;;4974791;28;20402;-66
2022/08/01 12:42:51;;;;;;;2.20;2.00;;;31.00;62.40;;;;;;4975943;28;20920;-66
2022/08/01 12:45:26;;;;;;;2.60;2.50;;;31.10;62.10;;;;;;4975468;28;20908;-65
2022/08/01 12:47:57;;;;;;;5.90;5.33;;;30.90;62.80;;;;;;4958622;28;20388;-66
2022/08/01 12:50:25;;;;;;;2.87;2.67;;;30.60;63.90;;;;;;4975538;28;20438;-67
2022/08/01 12:52:51;;;;;;;2.30;2.10;;;30.40;63.80;;;;;;4975671;28;20386;-67
2022/08/01 12:55:19;;;;;;;2.27;2.17;;;30.20;64.30;;;;;;4975502;28;20434;-66
2022/08/01 12:58:03;;;;;;;2.23;2.13;;;29.90;65.10;;;;;;4975822;28;20416;-65
2022/08/01 13:00:28;;;;;;;2.80;2.60;;;29.70;65.40;;;;;;4975761;28;20439;-66
2022/08/01 13:03:09;;;;;;;2.30;2.20;;;29.50;67.20;;;;;;4975215;28;20423;-66
2022/08/01 13:05:45;;;;;;;1.87;1.77;;;29.30;66.70;;;;;;4975632;28;20208;-66
2022/08/01 13:08:19;;;;;;;2.03;1.93;;;29.20;67.50;;;;;;4975884;28;20750;-67
2022/08/01 13:10:46;;;;;;;2.10;1.93;;;29.30;67.70;;;;;;4975291;28;20463;-65
2022/08/01 13:13:13;;;;;;;1.53;1.47;;;29.20;68.40;;;;;;4975105;28;20447;-66
2022/08/01 13:15:43;;;;;;;2.20;2.00;;;29.20;67.90;;;;;;4975863;28;20411;-65
2022/08/01 13:18:28;;;;;;;2.20;2.10;;;29.20;67.90;;;;;;4975400;28;20480;-67
2022/08/01 13:21:15;;;;;;;2.03;1.93;;;29.40;66.80;;;;;;4975216;28;20418;-66
2022/08/01 13:24:03;;;;;;;2.07;1.80;;;29.50;66.80;;;;;;4955601;28;20432;-66
2022/08/01 13:26:41;;;;;;;1.60;1.50;;;29.70;67.10;;;;;;4938607;29;20403;-66
2022/08/01 13:29:08;;;;;;;2.50;2.30;;;29.80;66.00;;;;;;4955571;29;20445;-66
2022/08/01 13:31:38;;;;;;;1.90;1.80;;;29.80;66.10;;;;;;4955668;29;20483;-66
2022/08/01 13:34:05;;;;;;;1.93;1.83;;;29.80;65.20;;;;;;4953906;28;20399;-66
2022/08/01 13:36:31;;;;;;;2.10;2.00;;;29.70;65.40;;;;;;4958710;28;20509;-67
2022/08/01 13:41:45;;;;;;;1.93;1.83;;;29.60;66.60;;;;;;4973667;28;20457;-66
2022/08/01 13:44:11;;;;;;;1.90;1.80;;;29.60;67.80;;;;;;4973203;28;20983;-66
2022/08/01 13:46:38;;;;;;;2.13;2.03;;;29.50;67.20;;;;;;4973508;28;20423;-66
2022/08/01 13:49:04;;;;;;;2.43;2.33;;;29.50;66.50;;;;;;4975384;28;20262;-65
2022/08/01 13:51:30;;;;;;;1.80;1.70;;;29.40;66.90;;;;;;4974618;28;20470;-67
2022/08/01 13:53:56;;;;;;;2.27;1.70;;;29.30;67.10;;;;;;4974476;28;20405;-65
2022/08/01 13:56:22;;;;;;;2.60;1.50;;;29.30;68.50;;;;;;4974905;28;20498;-66
2022/08/01 13:58:48;;;;;;;2.50;2.30;;;29.30;67.90;;;;;;4975015;28;20403;-65
2022/08/01 14:01:13;;;;;;;2.17;1.77;;;29.40;67.80;;;;;;4974876;28;20408;-65
2022/08/01 14:03:39;;;;;;;2.23;2.13;;;29.30;67.30;;;;;;4974270;28;20196;-66
2022/08/01 14:06:05;;;;;;;1.50;1.40;;;29.10;67.60;;;;;;4974271;28;20202;-65
2022/08/01 14:08:31;;;;;;;1.70;1.60;;;29.00;68.40;;;;;;4974726;28;20172;-66
2022/08/01 14:10:58;;;;;;;1.60;1.50;;;28.90;68.90;;;;;;4974419;28;20441;-65
2022/08/01 14:13:27;;;;;;;2.10;2.00;;;29.00;69.70;;;;;;4974235;28;20423;-66
2022/08/01 14:15:53;;;;;;;1.80;1.70;;;29.10;69.00;;;;;;4957245;28;20408;-66
2022/08/01 14:18:19;;;;;;;5.40;1.73;;;29.20;69.10;;;;;;4974532;28;20813;-67
2022/08/01 14:20:44;;;;;;;1.70;1.60;;;29.30;68.60;;;;;;4974253;28;20176;-65
2022/08/01 14:23:10;;;;;;;1.50;1.40;;;29.30;68.30;;;;;;4974031;28;20183;-66
2022/08/01 14:25:40;;;;;;;5.33;4.80;;;29.30;68.90;;;;;;4974613;28;20195;-66
2022/08/01 14:28:06;;;;;;;1.93;1.77;;;29.30;69.30;;;;;;4974406;28;20172;-68
2022/08/01 14:30:32;;;;;;;1.60;1.50;;;29.30;68.80;;;;;;4974323;28;20824;-66
2022/08/01 14:32:58;;;;;;;1.70;1.60;;;29.40;69.50;;;;;;4974020;28;20175;-67
2022/08/01 14:35:25;;;;;;;2.13;1.93;;;29.30;68.30;;;;;;4973966;28;20442;-66
2022/08/01 14:37:51;;;;;;;1.60;1.50;;;29.30;68.30;;;;;;4977459;28;20575;-66
2022/08/01 14:40:17;;;;;;;8.20;1.67;;;29.20;69.90;;;;;;4978416;28;20405;-67
2022/08/01 14:42:45;;;;;;;2.03;1.40;;;29.20;68.80;;;;;;4978088;28;20411;-67
2022/08/01 14:45:13;;;;;;;1.63;1.53;;;29.20;68.60;;;;;;4960725;28;20200;-66
2022/08/01 14:47:40;;;;;;;1.20;1.10;;;29.10;68.80;;;;;;4978120;28;20414;-65
2022/08/01 14:50:08;;;;;;;1.57;1.47;;;29.10;69.70;;;;;;4977801;28;20760;-66
2022/08/01 14:52:35;;;;;;;1.80;1.70;;;29.00;69.10;;;;;;4977844;28;20488;-66
2022/08/01 14:55:02;;;;;;;1.90;1.80;;;29.10;69.80;;;;;;4978170;28;20432;-66
2022/08/01 14:57:28;;;;;;;1.90;1.80;;;29.10;69.60;;;;;;4978036;28;20892;-67
2022/08/01 14:59:54;;;;;;;1.73;1.60;;;29.20;69.80;;;;;;4978626;28;20383;-66
2022/08/01 15:02:21;;;;;;;1.57;1.47;;;29.30;69.40;;;;;;4977806;28;20403;-66
2022/08/01 15:04:47;;;;;;;1.70;1.60;;;29.40;68.80;;;;;;4977535;28;20219;-66
2022/08/01 15:07:13;;;;;;;3.83;1.90;;;29.50;68.50;;;;;;4977827;28;20475;-65
2022/08/01 15:09:40;;;;;;;2.73;2.03;;;29.50;68.10;;;;;;4977314;28;20410;-67
2022/08/01 15:12:06;;;;;;;2.20;1.83;;;29.60;67.50;;;;;;4977319;28;20445;-65
2022/08/01 15:14:52;;;;;;;2.70;1.53;;;29.70;68.50;;;;;;4977055;28;20446;-66
2022/08/01 15:17:20;;;;;;;3.90;3.53;;;29.70;67.90;;;;;;4977934;28;20415;-65
2022/08/01 15:19:48;;;;;;;1.87;1.70;;;29.70;67.60;;;;;;4960147;28;20934;-66
2022/08/01 15:22:14;;;;;;;2.17;1.87;;;29.80;68.30;;;;;;4977398;28;20414;-65
2022/08/01 15:24:40;;;;;;;1.70;1.60;;;29.80;66.60;;;;;;4977497;28;20960;-66
2022/08/01 15:27:06;;;;;;;1.60;1.50;;;29.80;66.30;;;;;;4977533;28;20179;-66
2022/08/01 15:29:32;;;;;;;1.77;1.67;;;29.80;66.60;;;;;;4977609;28;20383;-65
2022/08/01 15:31:58;;;;;;;2.13;2.03;;;29.70;67.50;;;;;;4977579;28;20204;-65
2022/08/01 15:34:25;;;;;;;1.80;1.70;;;29.50;66.70;;;;;;4976939;28;20763;-66
2022/08/01 15:36:51;;;;;;;2.13;1.93;;;29.30;67.40;;;;;;4977742;28;20423;-66
2022/08/01 15:39:17;;;;;;;1.23;1.13;;;29.30;68.80;;;;;;4960298;28;20412;-66
2022/08/01 15:41:42;;;;;;;1.93;1.83;;;29.30;68.20;;;;;;4977189;28;20412;-66
2022/08/01 15:44:08;;;;;;;1.70;1.60;;;29.30;68.10;;;;;;4976752;28;20470;-67
2022/08/01 15:46:34;;;;;;;1.60;1.50;;;29.30;67.60;;;;;;4959766;28;20235;-67
2022/08/01 15:49:04;;;;;;;1.97;1.80;;;29.30;67.60;;;;;;4977058;28;20195;-66
2022/08/01 15:51:31;;;;;;;1.80;1.70;;;29.30;67.50;;;;;;4957689;29;20647;-66
2022/08/01 15:53:57;;;;;;;1.53;1.43;;;29.30;68.00;;;;;;4956615;28;20491;-66
2022/08/01 15:56:23;;;;;;;1.37;1.27;;;29.30;66.90;;;;;;4957553;29;20824;-67
2022/08/01 15:58:49;;;;;;;1.30;1.20;;;29.30;67.90;;;;;;4957631;29;20400;-68
2022/08/01 16:01:15;;;;;;;1.93;1.83;;;29.20;67.40;;;;;;4957612;29;20929;-66
2022/08/01 16:03:41;;;;;;;1.53;1.43;;;29.20;67.70;;;;;;4957056;28;20403;-67
2022/08/01 16:06:07;;;;;;;1.50;1.40;;;29.20;68.30;;;;;;4976315;28;20227;-67
2022/08/01 16:08:33;;;;;;;1.33;1.23;;;29.10;67.70;;;;;;4976933;28;20190;-67
2022/08/01 16:10:58;;;;;;;1.40;1.30;;;29.00;67.50;;;;;;4959180;28;20817;-67
2022/08/01 16:13:24;;;;;;;1.57;1.47;;;28.90;67.70;;;;;;4976101;28;20432;-67
2022/08/01 16:15:50;;;;;;;1.40;1.30;;;28.80;69.10;;;;;;4976688;28;20252;-67
2022/08/01 16:18:15;;;;;;;1.90;1.63;;;28.70;68.60;;;;;;4976657;28;20329;-66
2022/08/01 16:20:42;;;;;;;2.03;1.83;;;28.70;67.90;;;;;;4976008;28;20195;-68
2022/08/01 16:23:08;;;;;;;5.50;4.93;;;28.70;69.10;;;;;;4976069;28;20180;-64
2022/08/01 16:25:34;;;;;;;1.97;1.67;;;28.70;69.20;;;;;;4976620;28;20931;-64
2022/08/01 16:28:00;;;;;;;1.23;1.13;;;28.70;69.70;;;;;;4976126;28;20782;-64
2022/08/01 16:30:26;;;;;;;1.93;1.77;;;28.70;69.40;;;;;;4975767;28;20350;-64
2022/08/01 16:32:52;;;;;;;1.10;1.10;;;28.80;68.50;;;;;;4975494;28;20825;-64
2022/08/01 16:35:18;;;;;;;1.20;1.20;;;28.80;68.60;;;;;;4975840;28;20514;-64
2022/08/01 16:37:44;;;;;;;1.13;1.13;;;28.80;68.20;;;;;;4975761;28;20258;-63
2022/08/01 16:40:09;;;;;;;1.27;1.17;;;28.80;68.30;;;;;;4976124;28;20266;-65
2022/08/01 16:42:35;;;;;;;1.47;1.30;;;28.80;68.30;;;;;;4975693;28;20180;-65
2022/08/01 16:45:01;;;;;;;1.47;1.37;;;28.70;68.60;;;;;;4975745;28;20626;-64
2022/08/01 16:47:27;;;;;;;1.80;1.40;;;28.50;68.30;;;;;;4975618;28;20187;-64
2022/08/01 16:49:53;;;;;;;1.53;1.43;;;28.50;69.60;;;;;;4975512;28;20391;-64
2022/08/01 16:52:19;;;;;;;1.33;1.23;;;28.40;69.80;;;;;;4974853;28;20674;-65
2022/08/01 16:54:44;;;;;;;1.00;1.00;;;28.40;70.30;;;;;;4975563;28;20223;-66
2022/08/01 16:57:10;;;;;;;1.23;1.13;;;28.30;69.20;;;;;;4958355;28;20229;-65
2022/08/01 16:59:36;;;;;;;1.40;1.30;;;28.20;69.90;;;;;;4975016;28;20178;-66